Weather History for Council Bluffs, IA

Change the Weather History Date:

Wednesday, March 20, 2013

  Actual Average Record
Temperature  
Mean Temperature 23 °F -  
Max Temperature 32 °F 48 °F 71 °F (1997)
Min Temperature 14 °F 30 °F 14 °F (2013)
Degree Days  
Heating Degree Days 42    
Moisture  
Dew Point 9 °F    
Average Humidity 54    
Maximum Humidity 74    
Minimum Humidity 35    
Precipitation  
Precipitation 0.00 in - - ()
Sea Level Pressure  
Sea Level Pressure 30.27 in    
Wind  
Wind Speed 14 mph (NNW)    
Max Wind Speed 21 mph    
Max Gust Speed 29 mph    
Visibility 10 miles    
Events Snow    
Averages and records for this station are not official NWS values.
T = Trace of Precipitation, MM = Missing Value Source: NWS Daily Summary

Daily Weather History Graph

Daily Weather History Graph

Search for Another Location

Airport:

Trip Planner

Search our weather history database for the weather conditions in past years. The results will help you decide how hot, cold, wet, or windy it might be!

Date:

Astronomy

Mar. 20, 2013 Rise Set
Actual Time 7:25 AM CDT 7:35 PM CDT
Civil Twilight 6:58 AM CDT 8:03 PM CDT
Nautical Twilight 6:26 AM CDT 8:35 PM CDT
Astronomical Twilight 5:53 AM CDT 9:08 PM CDT
Moon 1:08 PM CDT (3/20) 3:09 AM CDT (3/20)
Length of Visible Light 13h 04m
Length of Day
12h 09m
First Quarter, 59% of the Moon is Illuminated
Mar 20
First Quarter
Mar 27
Full
Apr 2
Last Quarter
Apr 10
New
Apr 18
First Quarter

Hourly Weather History & Observations

Time (CDT) Temp. Windchill Dew Point Humidity Pressure Visibility Wind Dir Wind Speed Gust Speed Precip Events Conditions
12:15 AM 24.8 °F 11.9 °F 17.6 °F 74% 30.31 in 10.0 mi NNW 16.1 mph 24.2 mph N/A   Clear
12:35 AM 24.8 °F 10.3 °F 15.8 °F 69% 30.31 in 10.0 mi NNW 20.7 mph 27.6 mph N/A   Clear
12:55 AM 23.0 °F 9.2 °F 15.8 °F 74% 30.32 in 10.0 mi NNW 17.3 mph 25.3 mph N/A   Clear
1:15 AM 23.0 °F 8.7 °F 12.2 °F 63% 30.32 in 10.0 mi NNW 18.4 mph 27.6 mph N/A   Clear
1:35 AM 21.2 °F 8.3 °F 12.2 °F 68% 30.33 in 10.0 mi NNW 13.8 mph 25.3 mph N/A   Clear
1:55 AM 21.2 °F 7.3 °F 12.2 °F 68% 30.33 in 10.0 mi NNW 16.1 mph 27.6 mph N/A   Scattered Clouds
2:15 AM 21.2 °F 9.5 °F 12.2 °F 68% 30.33 in 10.0 mi NNW 11.5 mph - N/A   Overcast
2:35 AM 21.2 °F 8.9 °F 12.2 °F 68% 30.34 in 10.0 mi NNW 12.7 mph 21.9 mph N/A Snow Light Snow
2:55 AM 19.4 °F 3.6 °F 8.6 °F 63% 30.34 in 10.0 mi NNW 19.6 mph 28.8 mph N/A   Scattered Clouds
3:15 AM 19.4 °F 4.5 °F 10.4 °F 68% 30.34 in 10.0 mi NNW 17.3 mph - N/A   Mostly Cloudy
3:35 AM 19.4 °F 7.9 °F 10.4 °F 68% 30.35 in 10.0 mi NW 10.4 mph 18.4 mph N/A   Scattered Clouds
3:55 AM 19.4 °F 5.0 °F 10.4 °F 68% 30.34 in 10.0 mi NNW 16.1 mph - N/A   Clear
4:15 AM 17.6 °F 3.7 °F 10.4 °F 73% 30.34 in 10.0 mi NNW 13.8 mph - N/A   Clear
4:35 AM 17.6 °F 1.7 °F 8.6 °F 68% 30.34 in 10.0 mi NNW 18.4 mph 27.6 mph N/A   Clear
4:55 AM 17.6 °F 2.7 °F 8.6 °F 68% 30.35 in 10.0 mi NNW 16.1 mph 24.2 mph N/A   Partly Cloudy
5:15 AM 17.6 °F 2.7 °F 8.6 °F 68% 30.35 in 10.0 mi NW 16.1 mph 21.9 mph N/A   Partly Cloudy
5:35 AM 17.6 °F 3.7 °F 8.6 °F 68% 30.35 in 10.0 mi NW 13.8 mph - N/A   Clear
5:55 AM 17.6 °F 1.3 °F 8.6 °F 68% 30.36 in 10.0 mi NNW 19.6 mph 27.6 mph N/A   Scattered Clouds
6:15 AM 15.8 °F 0.9 °F 8.6 °F 73% 30.36 in 10.0 mi NNW 15.0 mph 21.9 mph N/A   Partly Cloudy
6:35 AM 15.8 °F -0.2 °F 6.8 °F 68% 30.37 in 10.0 mi NNW 17.3 mph 24.2 mph N/A   Scattered Clouds
6:55 AM 15.8 °F 0.9 °F 6.8 °F 68% 30.37 in 10.0 mi NW 15.0 mph 25.3 mph N/A   Partly Cloudy
7:15 AM 15.8 °F 1.4 °F 5.0 °F 62% 30.37 in 10.0 mi NNW 13.8 mph 23.0 mph N/A   Clear
7:35 AM 14.0 °F 2.9 °F 5.0 °F 67% 30.37 in 10.0 mi North 8.1 mph 18.4 mph N/A   Clear
7:55 AM 14.0 °F -0.2 °F 5.0 °F 67% 30.38 in 10.0 mi NNW 12.7 mph 20.7 mph N/A   Clear
8:15 AM 15.8 °F -0.2 °F 5.0 °F 62% 30.38 in 10.0 mi NNW 17.3 mph 23.0 mph N/A   Clear
8:35 AM 15.8 °F 2.1 °F 5.0 °F 62% 30.38 in 10.0 mi NW 12.7 mph 20.7 mph N/A   Clear
8:55 AM 15.8 °F 1.4 °F 5.0 °F 62% 30.37 in 10.0 mi NNW 13.8 mph 19.6 mph N/A   Clear
9:15 AM 17.6 °F 3.7 °F 5.0 °F 58% 30.37 in 10.0 mi NNW 13.8 mph 19.6 mph N/A   Clear
9:35 AM 17.6 °F 2.2 °F 5.0 °F 58% 30.37 in 10.0 mi North 17.3 mph - N/A   Clear
9:55 AM 17.6 °F 3.2 °F 3.2 °F 53% 30.37 in 10.0 mi NNW 15.0 mph 23.0 mph N/A   Clear
10:15 AM 19.4 °F 6.0 °F 5.0 °F 54% 30.37 in 10.0 mi NNW 13.8 mph 20.7 mph N/A   Clear
10:35 AM 19.4 °F 6.0 °F 5.0 °F 54% 30.36 in 10.0 mi NW 13.8 mph 21.9 mph N/A   Clear
10:55 AM 21.2 °F 7.8 °F 5.0 °F 50% 30.36 in 10.0 mi NNW 15.0 mph 21.9 mph N/A   Clear
11:15 AM 21.2 °F 7.8 °F 5.0 °F 50% 30.37 in 10.0 mi NW 15.0 mph 20.7 mph N/A   Clear
11:35 AM 23.0 °F 10.1 °F 5.0 °F 46% 30.36 in 10.0 mi NW 15.0 mph - N/A   Clear
11:55 AM 23.0 °F 8.7 °F 5.0 °F 46% 30.35 in 10.0 mi NW 18.4 mph - N/A   Clear
12:15 PM 23.0 °F 11.1 °F 5.0 °F 46% 30.35 in 10.0 mi NW 12.7 mph 23.0 mph N/A   Clear
12:35 PM 24.8 °F 12.4 °F 5.0 °F 43% 30.34 in 10.0 mi WNW 15.0 mph 21.9 mph N/A   Clear
12:55 PM 24.8 °F 12.4 °F 5.0 °F 43% 30.33 in 10.0 mi NW 15.0 mph - N/A   Clear
1:15 PM 26.6 °F 15.7 °F 6.8 °F 43% 30.32 in 10.0 mi WNW 12.7 mph 20.7 mph N/A   Clear
1:35 PM 26.6 °F 15.7 °F 6.8 °F 43% 30.30 in 10.0 mi WNW 12.7 mph 23.0 mph N/A   Clear
1:55 PM 26.6 °F 17.5 °F 5.0 °F 40% 30.29 in 10.0 mi WNW 9.2 mph 17.3 mph N/A   Clear
2:15 PM 28.4 °F 20.4 °F 6.8 °F 40% 30.27 in 10.0 mi NW 8.1 mph 19.6 mph N/A   Clear
2:35 PM 28.4 °F 17.5 °F 6.8 °F 40% 30.26 in 10.0 mi NNW 13.8 mph 19.6 mph N/A   Clear
2:55 PM 30.2 °F 20.8 °F 6.8 °F 37% 30.25 in 10.0 mi NW 11.5 mph - N/A   Clear
3:15 PM 30.2 °F 19.3 °F 6.8 °F 37% 30.23 in 10.0 mi NNW 15.0 mph 21.9 mph N/A   Clear
3:35 PM 32.0 °F 22.5 °F 8.6 °F 38% 30.22 in 10.0 mi NNW 12.7 mph 20.7 mph N/A   Clear
3:55 PM 32.0 °F 21.6 °F 8.6 °F 38% 30.21 in 10.0 mi NNW 15.0 mph 23.0 mph N/A   Clear
4:15 PM 32.0 °F 21.2 °F 8.6 °F 38% 30.20 in 10.0 mi NNW 16.1 mph - N/A   Clear
4:35 PM 32.0 °F 23.6 °F 8.6 °F 38% 30.20 in 10.0 mi NW 10.4 mph 20.7 mph N/A   Clear
4:55 PM 32.0 °F 23.0 °F 6.8 °F 35% 30.19 in 10.0 mi NNW 11.5 mph - N/A   Clear
5:15 PM 32.0 °F 23.0 °F 8.6 °F 38% 30.18 in 10.0 mi NW 11.5 mph 18.4 mph N/A   Clear
5:35 PM 32.0 °F 22.1 °F 8.6 °F 38% 30.17 in 10.0 mi NNW 13.8 mph - N/A   Clear
5:55 PM 32.0 °F 23.6 °F 10.4 °F 41% 30.17 in 10.0 mi NNW 10.4 mph 19.6 mph N/A   Clear
6:15 PM 32.0 °F 23.6 °F 8.6 °F 38% 30.16 in 10.0 mi NNW 10.4 mph 16.1 mph N/A   Clear
6:35 PM 32.0 °F 23.0 °F 10.4 °F 41% 30.15 in 10.0 mi North 11.5 mph - N/A   Clear
6:55 PM 32.0 °F 24.2 °F 8.6 °F 38% 30.15 in 10.0 mi NNW 9.2 mph - N/A   Clear
7:15 PM 30.2 °F 21.9 °F 10.4 °F 44% 30.15 in 10.0 mi North 9.2 mph - N/A   Clear
7:35 PM 28.4 °F 22.2 °F 10.4 °F 47% 30.14 in 10.0 mi North 5.8 mph - N/A   Clear
7:55 PM 28.4 °F 20.4 °F 10.4 °F 47% 30.13 in 10.0 mi North 8.1 mph - N/A   Clear
8:15 PM 26.6 °F 20.0 °F 12.2 °F 55% 30.13 in 10.0 mi North 5.8 mph - N/A   Clear
8:35 PM 28.4 °F - 10.4 °F 47% 30.14 in 10.0 mi Calm Calm - N/A   Clear
8:55 PM 26.6 °F - 8.6 °F 47% 30.15 in 10.0 mi Calm Calm - N/A   Clear
9:15 PM 28.4 °F 24.6 °F 10.4 °F 47% 30.14 in 10.0 mi North 3.5 mph - N/A   Clear
9:35 PM 26.6 °F 21.2 °F 12.2 °F 55% 30.14 in 10.0 mi NNE 4.6 mph - N/A   Clear
9:55 PM 24.8 °F 20.5 °F 12.2 °F 59% 30.13 in 10.0 mi NE 3.5 mph - N/A   Clear
10:15 PM 24.8 °F 19.1 °F 12.2 °F 59% 30.13 in 10.0 mi NE 4.6 mph - N/A   Clear
10:35 PM 24.8 °F 17.9 °F 12.2 °F 59% 30.12 in 10.0 mi NE 5.8 mph - N/A   Clear
10:55 PM 24.8 °F 16.9 °F 12.2 °F 59% 30.11 in 10.0 mi NE 6.9 mph - N/A   Clear
11:15 PM 24.8 °F 16.9 °F 10.4 °F 54% 30.11 in 10.0 mi NE 6.9 mph - N/A   Clear
11:35 PM 24.8 °F 16.1 °F 12.2 °F 59% 30.10 in 10.0 mi ENE 8.1 mph - N/A   Clear
11:55 PM 24.8 °F 16.1 °F 12.2 °F 59% 30.10 in 10.0 mi ENE 8.1 mph - N/A   Clear